sensor_id;sensor_type;location;lat;lon;timestamp;P1;durP1;ratioP1;P2;durP2;ratioP2
3817;SDS011;1924;48.078;11.516;2023-04-03T00:00:38;25.60;;;0.80;;
3817;SDS011;1924;48.078;11.516;2023-04-03T00:03:06;25.70;;;0.80;;
3817;SDS011;1924;48.078;11.516;2023-04-03T00:05:33;25.80;;;0.80;;
3817;SDS011;1924;48.078;11.516;2023-04-03T00:08:00;25.80;;;0.80;;
3817;SDS011;1924;48.078;11.516;2023-04-03T00:10:27;25.80;;;0.80;;
3817;SDS011;1924;48.078;11.516;2023-04-03T00:12:54;25.83;;;0.80;;
3817;SDS011;1924;48.078;11.516;2023-04-03T00:15:21;25.70;;;0.80;;
3817;SDS011;1924;48.078;11.516;2023-04-03T00:17:48;25.40;;;0.80;;
3817;SDS011;1924;48.078;11.516;2023-04-03T00:20:16;25.80;;;0.80;;
3817;SDS011;1924;48.078;11.516;2023-04-03T00:22:42;25.70;;;0.80;;
3817;SDS011;1924;48.078;11.516;2023-04-03T00:25:09;25.50;;;0.80;;
3817;SDS011;1924;48.078;11.516;2023-04-03T00:27:36;25.60;;;0.80;;
3817;SDS011;1924;48.078;11.516;2023-04-03T00:30:04;25.60;;;0.80;;
3817;SDS011;1924;48.078;11.516;2023-04-03T00:32:32;25.50;;;0.80;;
3817;SDS011;1924;48.078;11.516;2023-04-03T00:34:59;25.60;;;0.80;;
3817;SDS011;1924;48.078;11.516;2023-04-03T00:37:27;25.60;;;0.80;;
3817;SDS011;1924;48.078;11.516;2023-04-03T00:39:54;25.50;;;0.80;;
3817;SDS011;1924;48.078;11.516;2023-04-03T00:42:21;25.60;;;0.80;;
3817;SDS011;1924;48.078;11.516;2023-04-03T00:47:54;25.50;;;0.80;;
3817;SDS011;1924;48.078;11.516;2023-04-03T00:50:21;25.60;;;0.80;;
3817;SDS011;1924;48.078;11.516;2023-04-03T00:52:50;25.40;;;0.80;;
3817;SDS011;1924;48.078;11.516;2023-04-03T00:55:17;25.50;;;0.80;;
3817;SDS011;1924;48.078;11.516;2023-04-03T00:57:45;25.60;;;0.80;;
3817;SDS011;1924;48.078;11.516;2023-04-03T01:00:13;25.67;;;0.80;;
3817;SDS011;1924;48.078;11.516;2023-04-03T01:02:43;25.50;;;0.80;;
3817;SDS011;1924;48.078;11.516;2023-04-03T01:05:10;25.50;;;0.80;;
3817;SDS011;1924;48.078;11.516;2023-04-03T01:07:37;25.70;;;0.80;;
3817;SDS011;1924;48.078;11.516;2023-04-03T01:10:07;25.67;;;0.80;;
3817;SDS011;1924;48.078;11.516;2023-04-03T01:12:36;25.70;;;0.80;;
3817;SDS011;1924;48.078;11.516;2023-04-03T01:15:05;25.40;;;0.80;;
3817;SDS011;1924;48.078;11.516;2023-04-03T01:17:35;25.60;;;0.80;;
3817;SDS011;1924;48.078;11.516;2023-04-03T01:20:23;25.50;;;0.80;;
3817;SDS011;1924;48.078;11.516;2023-04-03T01:23:19;25.60;;;0.80;;
3817;SDS011;1924;48.078;11.516;2023-04-03T04:02:45;25.20;;;0.80;;
3817;SDS011;1924;48.078;11.516;2023-04-03T04:05:12;25.17;;;0.80;;
3817;SDS011;1924;48.078;11.516;2023-04-03T04:07:39;25.20;;;0.80;;
3817;SDS011;1924;48.078;11.516;2023-04-03T04:10:06;25.10;;;0.80;;
3817;SDS011;1924;48.078;11.516;2023-04-03T04:12:33;25.10;;;0.80;;
3817;SDS011;1924;48.078;11.516;2023-04-03T04:15:01;25.10;;;0.80;;
3817;SDS011;1924;48.078;11.516;2023-04-03T04:17:28;25.20;;;0.80;;
3817;SDS011;1924;48.078;11.516;2023-04-03T04:19:56;25.10;;;0.80;;
3817;SDS011;1924;48.078;11.516;2023-04-03T04:22:23;25.10;;;0.80;;
3817;SDS011;1924;48.078;11.516;2023-04-03T04:24:50;25.10;;;0.80;;
3817;SDS011;1924;48.078;11.516;2023-04-03T04:27:16;25.10;;;0.80;;
3817;SDS011;1924;48.078;11.516;2023-04-03T04:29:43;25.10;;;0.80;;
3817;SDS011;1924;48.078;11.516;2023-04-03T04:32:10;25.00;;;0.80;;
3817;SDS011;1924;48.078;11.516;2023-04-03T04:34:36;25.00;;;0.80;;
3817;SDS011;1924;48.078;11.516;2023-04-03T04:37:05;25.10;;;0.80;;
3817;SDS011;1924;48.078;11.516;2023-04-03T04:39:31;25.00;;;0.80;;
3817;SDS011;1924;48.078;11.516;2023-04-03T04:41:58;25.17;;;0.80;;
3817;SDS011;1924;48.078;11.516;2023-04-03T04:44:27;25.10;;;0.80;;
3817;SDS011;1924;48.078;11.516;2023-04-03T04:46:57;25.00;;;0.80;;
3817;SDS011;1924;48.078;11.516;2023-04-03T04:49:24;25.00;;;0.80;;
3817;SDS011;1924;48.078;11.516;2023-04-03T04:51:50;25.17;;;0.80;;
3817;SDS011;1924;48.078;11.516;2023-04-03T04:54:18;25.20;;;0.80;;
3817;SDS011;1924;48.078;11.516;2023-04-03T04:56:45;25.00;;;0.80;;
3817;SDS011;1924;48.078;11.516;2023-04-03T04:59:12;25.00;;;0.80;;
3817;SDS011;1924;48.078;11.516;2023-04-03T05:01:38;25.03;;;0.80;;
3817;SDS011;1924;48.078;11.516;2023-04-03T05:04:05;25.10;;;0.80;;
3817;SDS011;1924;48.078;11.516;2023-04-03T05:06:32;25.07;;;0.80;;
3817;SDS011;1924;48.078;11.516;2023-04-03T05:09:00;25.07;;;0.80;;
3817;SDS011;1924;48.078;11.516;2023-04-03T05:11:28;25.00;;;0.80;;
3817;SDS011;1924;48.078;11.516;2023-04-03T05:13:55;25.00;;;0.80;;
3817;SDS011;1924;48.078;11.516;2023-04-03T05:16:22;25.00;;;0.80;;
3817;SDS011;1924;48.078;11.516;2023-04-03T05:18:49;25.00;;;0.80;;
3817;SDS011;1924;48.078;11.516;2023-04-03T05:21:15;25.00;;;0.80;;
3817;SDS011;1924;48.078;11.516;2023-04-03T05:23:43;24.90;;;0.80;;
3817;SDS011;1924;48.078;11.516;2023-04-03T05:26:09;25.10;;;0.80;;
3817;SDS011;1924;48.078;11.516;2023-04-03T05:28:37;25.10;;;0.80;;
3817;SDS011;1924;48.078;11.516;2023-04-03T05:31:04;25.10;;;0.80;;
3817;SDS011;1924;48.078;11.516;2023-04-03T05:33:31;25.00;;;0.80;;
3817;SDS011;1924;48.078;11.516;2023-04-03T05:36:02;25.00;;;0.80;;
3817;SDS011;1924;48.078;11.516;2023-04-03T05:38:29;25.00;;;0.80;;
3817;SDS011;1924;48.078;11.516;2023-04-03T05:40:56;25.00;;;0.80;;
3817;SDS011;1924;48.078;11.516;2023-04-03T05:43:23;25.00;;;0.80;;
3817;SDS011;1924;48.078;11.516;2023-04-03T05:45:51;25.07;;;0.80;;
3817;SDS011;1924;48.078;11.516;2023-04-03T05:48:18;25.00;;;0.80;;
3817;SDS011;1924;48.078;11.516;2023-04-03T05:50:45;24.90;;;0.80;;
3817;SDS011;1924;48.078;11.516;2023-04-03T05:53:15;24.90;;;0.80;;
3817;SDS011;1924;48.078;11.516;2023-04-03T05:55:46;24.80;;;0.80;;
3817;SDS011;1924;48.078;11.516;2023-04-03T05:58:13;24.80;;;0.80;;
3817;SDS011;1924;48.078;11.516;2023-04-03T06:00:40;25.07;;;0.80;;
3817;SDS011;1924;48.078;11.516;2023-04-03T06:03:08;24.83;;;0.80;;
3817;SDS011;1924;48.078;11.516;2023-04-03T06:05:35;24.90;;;0.80;;
3817;SDS011;1924;48.078;11.516;2023-04-03T06:08:02;24.87;;;0.80;;
3817;SDS011;1924;48.078;11.516;2023-04-03T06:10:29;24.90;;;0.80;;
3817;SDS011;1924;48.078;11.516;2023-04-03T06:12:55;24.90;;;0.80;;
3817;SDS011;1924;48.078;11.516;2023-04-03T06:15:22;24.90;;;0.80;;
3817;SDS011;1924;48.078;11.516;2023-04-03T06:17:49;24.80;;;0.80;;
3817;SDS011;1924;48.078;11.516;2023-04-03T06:20:17;24.90;;;0.80;;
3817;SDS011;1924;48.078;11.516;2023-04-03T06:22:44;25.00;;;0.80;;
3817;SDS011;1924;48.078;11.516;2023-04-03T06:25:11;24.90;;;0.80;;
3817;SDS011;1924;48.078;11.516;2023-04-03T06:27:38;24.60;;;0.80;;
3817;SDS011;1924;48.078;11.516;2023-04-03T06:30:05;24.80;;;0.80;;
3817;SDS011;1924;48.078;11.516;2023-04-03T06:32:33;24.80;;;0.80;;
3817;SDS011;1924;48.078;11.516;2023-04-03T06:35:00;24.90;;;0.80;;
3817;SDS011;1924;48.078;11.516;2023-04-03T06:37:28;24.70;;;0.80;;
3817;SDS011;1924;48.078;11.516;2023-04-03T06:39:55;24.80;;;0.80;;
3817;SDS011;1924;48.078;11.516;2023-04-03T06:42:22;24.90;;;0.80;;
3817;SDS011;1924;48.078;11.516;2023-04-03T06:44:49;24.70;;;0.80;;
3817;SDS011;1924;48.078;11.516;2023-04-03T06:47:16;24.80;;;0.80;;
3817;SDS011;1924;48.078;11.516;2023-04-03T06:49:44;24.70;;;0.80;;
3817;SDS011;1924;48.078;11.516;2023-04-03T06:52:11;24.90;;;0.80;;
3817;SDS011;1924;48.078;11.516;2023-04-03T06:54:39;24.80;;;0.80;;
3817;SDS011;1924;48.078;11.516;2023-04-03T06:57:06;24.80;;;0.80;;
3817;SDS011;1924;48.078;11.516;2023-04-03T06:59:33;24.77;;;0.80;;
3817;SDS011;1924;48.078;11.516;2023-04-03T07:02:01;24.80;;;0.80;;
3817;SDS011;1924;48.078;11.516;2023-04-03T07:04:28;24.50;;;0.80;;
3817;SDS011;1924;48.078;11.516;2023-04-03T07:06:55;24.80;;;0.80;;
3817;SDS011;1924;48.078;11.516;2023-04-03T07:09:21;24.70;;;0.80;;
3817;SDS011;1924;48.078;11.516;2023-04-03T07:11:49;24.60;;;0.80;;
3817;SDS011;1924;48.078;11.516;2023-04-03T07:14:16;24.80;;;0.80;;
3817;SDS011;1924;48.078;11.516;2023-04-03T07:16:43;24.60;;;0.80;;
3817;SDS011;1924;48.078;11.516;2023-04-03T07:19:09;24.60;;;0.80;;
3817;SDS011;1924;48.078;11.516;2023-04-03T07:21:36;24.70;;;0.80;;
3817;SDS011;1924;48.078;11.516;2023-04-03T07:24:03;24.70;;;0.80;;
3817;SDS011;1924;48.078;11.516;2023-04-03T07:26:30;24.70;;;0.80;;
3817;SDS011;1924;48.078;11.516;2023-04-03T07:28:58;24.67;;;0.80;;
3817;SDS011;1924;48.078;11.516;2023-04-03T07:31:25;24.50;;;0.80;;
3817;SDS011;1924;48.078;11.516;2023-04-03T07:33:52;24.70;;;0.80;;
3817;SDS011;1924;48.078;11.516;2023-04-03T07:36:19;24.60;;;0.80;;
3817;SDS011;1924;48.078;11.516;2023-04-03T07:38:48;24.70;;;0.80;;
3817;SDS011;1924;48.078;11.516;2023-04-03T07:41:16;24.70;;;0.80;;
3817;SDS011;1924;48.078;11.516;2023-04-03T07:43:45;24.60;;;0.80;;
3817;SDS011;1924;48.078;11.516;2023-04-03T07:46:16;24.70;;;0.80;;
3817;SDS011;1924;48.078;11.516;2023-04-03T07:48:43;24.50;;;0.73;;
3817;SDS011;1924;48.078;11.516;2023-04-03T07:51:10;24.50;;;0.80;;
3817;SDS011;1924;48.078;11.516;2023-04-03T07:53:37;24.50;;;0.70;;
3817;SDS011;1924;48.078;11.516;2023-04-03T07:56:04;24.77;;;0.80;;
3817;SDS011;1924;48.078;11.516;2023-04-03T07:58:31;24.70;;;0.80;;
3817;SDS011;1924;48.078;11.516;2023-04-03T08:00:58;24.63;;;0.80;;
3817;SDS011;1924;48.078;11.516;2023-04-03T08:03:26;24.70;;;0.80;;
3817;SDS011;1924;48.078;11.516;2023-04-03T08:05:53;24.70;;;0.80;;
3817;SDS011;1924;48.078;11.516;2023-04-03T08:08:21;24.60;;;0.80;;
3817;SDS011;1924;48.078;11.516;2023-04-03T08:10:49;24.70;;;0.80;;
3817;SDS011;1924;48.078;11.516;2023-04-03T08:13:16;24.67;;;0.80;;
3817;SDS011;1924;48.078;11.516;2023-04-03T08:15:43;24.70;;;0.80;;
3817;SDS011;1924;48.078;11.516;2023-04-03T08:18:10;24.70;;;0.80;;
3817;SDS011;1924;48.078;11.516;2023-04-03T08:20:38;24.70;;;0.77;;
3817;SDS011;1924;48.078;11.516;2023-04-03T08:23:06;24.57;;;0.80;;
3817;SDS011;1924;48.078;11.516;2023-04-03T08:25:33;24.60;;;0.80;;
3817;SDS011;1924;48.078;11.516;2023-04-03T08:27:59;24.50;;;0.80;;
3817;SDS011;1924;48.078;11.516;2023-04-03T08:30:27;24.67;;;0.80;;
3817;SDS011;1924;48.078;11.516;2023-04-03T08:32:53;24.50;;;0.80;;
3817;SDS011;1924;48.078;11.516;2023-04-03T08:35:20;24.70;;;0.80;;
3817;SDS011;1924;48.078;11.516;2023-04-03T08:37:48;24.70;;;0.80;;
3817;SDS011;1924;48.078;11.516;2023-04-03T08:40:18;24.73;;;0.80;;
3817;SDS011;1924;48.078;11.516;2023-04-03T08:42:48;24.50;;;0.80;;
3817;SDS011;1924;48.078;11.516;2023-04-03T08:45:25;24.50;;;0.80;;
3817;SDS011;1924;48.078;11.516;2023-04-03T08:48:04;24.50;;;0.80;;
3817;SDS011;1924;48.078;11.516;2023-04-03T08:50:33;24.50;;;0.80;;
3817;SDS011;1924;48.078;11.516;2023-04-03T08:53:06;24.50;;;0.80;;
3817;SDS011;1924;48.078;11.516;2023-04-03T08:55:40;24.60;;;0.80;;
3817;SDS011;1924;48.078;11.516;2023-04-03T08:58:10;24.50;;;0.80;;
3817;SDS011;1924;48.078;11.516;2023-04-03T09:00:43;24.40;;;0.80;;
3817;SDS011;1924;48.078;11.516;2023-04-03T09:03:12;24.67;;;0.80;;
3817;SDS011;1924;48.078;11.516;2023-04-03T09:05:41;24.63;;;0.80;;
3817;SDS011;1924;48.078;11.516;2023-04-03T09:08:17;24.50;;;0.80;;
3817;SDS011;1924;48.078;11.516;2023-04-03T09:10:49;24.70;;;0.80;;
3817;SDS011;1924;48.078;11.516;2023-04-03T09:13:24;24.60;;;0.80;;
3817;SDS011;1924;48.078;11.516;2023-04-03T09:15:56;24.60;;;0.80;;
3817;SDS011;1924;48.078;11.516;2023-04-03T09:18:25;24.67;;;0.80;;
3817;SDS011;1924;48.078;11.516;2023-04-03T09:20:58;24.50;;;0.80;;
3817;SDS011;1924;48.078;11.516;2023-04-03T09:23:33;24.60;;;0.80;;
3817;SDS011;1924;48.078;11.516;2023-04-03T09:26:09;24.60;;;0.80;;
3817;SDS011;1924;48.078;11.516;2023-04-03T09:28:42;24.50;;;0.80;;
3817;SDS011;1924;48.078;11.516;2023-04-03T09:31:15;24.60;;;0.80;;
3817;SDS011;1924;48.078;11.516;2023-04-03T09:33:46;24.60;;;0.80;;
3817;SDS011;1924;48.078;11.516;2023-04-03T09:36:14;24.50;;;0.80;;
3817;SDS011;1924;48.078;11.516;2023-04-03T09:39:11;24.60;;;0.80;;
3817;SDS011;1924;48.078;11.516;2023-04-03T09:41:40;24.60;;;0.80;;
3817;SDS011;1924;48.078;11.516;2023-04-03T09:44:20;24.60;;;0.80;;
3817;SDS011;1924;48.078;11.516;2023-04-03T09:46:49;24.73;;;0.80;;
3817;SDS011;1924;48.078;11.516;2023-04-03T09:49:15;24.70;;;0.80;;
3817;SDS011;1924;48.078;11.516;2023-04-03T09:51:43;24.70;;;0.80;;
3817;SDS011;1924;48.078;11.516;2023-04-03T09:57:10;24.70;;;0.80;;
3817;SDS011;1924;48.078;11.516;2023-04-03T09:59:44;24.80;;;0.80;;
3817;SDS011;1924;48.078;11.516;2023-04-03T10:05:00;24.60;;;0.80;;
3817;SDS011;1924;48.078;11.516;2023-04-03T10:07:31;24.50;;;0.80;;
3817;SDS011;1924;48.078;11.516;2023-04-03T10:10:02;24.63;;;0.80;;
3817;SDS011;1924;48.078;11.516;2023-04-03T10:12:44;24.60;;;0.80;;
3817;SDS011;1924;48.078;11.516;2023-04-03T10:15:11;24.50;;;0.70;;
3817;SDS011;1924;48.078;11.516;2023-04-03T10:17:42;24.60;;;0.80;;
3817;SDS011;1924;48.078;11.516;2023-04-03T10:20:22;24.50;;;0.80;;
3817;SDS011;1924;48.078;11.516;2023-04-03T10:22:56;24.60;;;0.80;;
3817;SDS011;1924;48.078;11.516;2023-04-03T10:25:31;24.40;;;0.80;;
3817;SDS011;1924;48.078;11.516;2023-04-03T10:28:03;24.40;;;0.80;;
3817;SDS011;1924;48.078;11.516;2023-04-03T10:30:36;24.40;;;0.70;;
3817;SDS011;1924;48.078;11.516;2023-04-03T10:33:17;24.60;;;0.80;;
3817;SDS011;1924;48.078;11.516;2023-04-03T10:36:02;24.50;;;0.80;;
3817;SDS011;1924;48.078;11.516;2023-04-03T10:38:40;24.40;;;0.80;;
3817;SDS011;1924;48.078;11.516;2023-04-03T10:41:17;24.50;;;0.80;;
3817;SDS011;1924;48.078;11.516;2023-04-03T10:43:52;24.50;;;0.80;;
3817;SDS011;1924;48.078;11.516;2023-04-03T10:46:27;24.30;;;0.80;;
3817;SDS011;1924;48.078;11.516;2023-04-03T10:49:03;24.50;;;0.80;;
3817;SDS011;1924;48.078;11.516;2023-04-03T10:51:37;24.40;;;0.80;;
3817;SDS011;1924;48.078;11.516;2023-04-03T10:54:11;24.57;;;0.80;;
3817;SDS011;1924;48.078;11.516;2023-04-03T10:56:44;24.53;;;0.80;;
3817;SDS011;1924;48.078;11.516;2023-04-03T10:59:17;24.50;;;0.80;;
3817;SDS011;1924;48.078;11.516;2023-04-03T11:01:50;24.30;;;0.80;;
3817;SDS011;1924;48.078;11.516;2023-04-03T11:04:19;24.50;;;0.80;;
3817;SDS011;1924;48.078;11.516;2023-04-03T11:06:51;24.40;;;0.80;;
3817;SDS011;1924;48.078;11.516;2023-04-03T11:09:27;24.30;;;0.73;;
3817;SDS011;1924;48.078;11.516;2023-04-03T11:12:00;24.40;;;0.80;;
3817;SDS011;1924;48.078;11.516;2023-04-03T11:14:31;24.60;;;0.80;;
3817;SDS011;1924;48.078;11.516;2023-04-03T11:17:04;24.60;;;0.80;;
3817;SDS011;1924;48.078;11.516;2023-04-03T11:19:38;24.60;;;0.80;;
3817;SDS011;1924;48.078;11.516;2023-04-03T11:22:10;24.60;;;0.80;;
3817;SDS011;1924;48.078;11.516;2023-04-03T11:24:46;24.30;;;0.80;;
3817;SDS011;1924;48.078;11.516;2023-04-03T11:27:24;24.60;;;0.80;;
3817;SDS011;1924;48.078;11.516;2023-04-03T11:29:55;24.40;;;0.80;;
3817;SDS011;1924;48.078;11.516;2023-04-03T11:32:34;24.40;;;0.80;;
3817;SDS011;1924;48.078;11.516;2023-04-03T11:35:19;24.43;;;0.80;;
3817;SDS011;1924;48.078;11.516;2023-04-03T11:37:47;24.30;;;0.80;;
3817;SDS011;1924;48.078;11.516;2023-04-03T11:40:19;24.30;;;0.80;;
3817;SDS011;1924;48.078;11.516;2023-04-03T11:42:52;24.37;;;0.80;;
3817;SDS011;1924;48.078;11.516;2023-04-03T11:45:24;24.20;;;0.80;;
3817;SDS011;1924;48.078;11.516;2023-04-03T11:47:58;24.30;;;0.80;;
3817;SDS011;1924;48.078;11.516;2023-04-03T11:50:39;24.43;;;0.80;;
3817;SDS011;1924;48.078;11.516;2023-04-03T11:53:27;24.50;;;0.80;;
3817;SDS011;1924;48.078;11.516;2023-04-03T11:55:56;24.30;;;0.80;;
3817;SDS011;1924;48.078;11.516;2023-04-03T11:58:27;24.47;;;0.80;;
3817;SDS011;1924;48.078;11.516;2023-04-03T12:01:02;24.50;;;0.77;;
3817;SDS011;1924;48.078;11.516;2023-04-03T12:06:47;24.50;;;0.73;;
3817;SDS011;1924;48.078;11.516;2023-04-03T12:12:28;24.50;;;0.73;;
3817;SDS011;1924;48.078;11.516;2023-04-03T12:15:22;24.30;;;0.80;;
3817;SDS011;1924;48.078;11.516;2023-04-03T12:21:17;24.40;;;0.80;;
3817;SDS011;1924;48.078;11.516;2023-04-03T12:23:58;24.20;;;0.80;;
3817;SDS011;1924;48.078;11.516;2023-04-03T12:26:31;24.10;;;0.80;;
3817;SDS011;1924;48.078;11.516;2023-04-03T12:29:07;24.37;;;0.80;;
3817;SDS011;1924;48.078;11.516;2023-04-03T12:31:42;24.20;;;0.80;;
3817;SDS011;1924;48.078;11.516;2023-04-03T12:34:24;24.20;;;0.80;;
3817;SDS011;1924;48.078;11.516;2023-04-03T12:37:07;24.07;;;0.70;;
3817;SDS011;1924;48.078;11.516;2023-04-03T12:39:53;24.20;;;0.80;;
3817;SDS011;1924;48.078;11.516;2023-04-03T12:42:41;24.20;;;0.80;;
3817;SDS011;1924;48.078;11.516;2023-04-03T12:45:24;24.23;;;0.77;;
3817;SDS011;1924;48.078;11.516;2023-04-03T12:47:54;24.20;;;0.80;;
3817;SDS011;1924;48.078;11.516;2023-04-03T12:50:22;24.20;;;0.80;;
3817;SDS011;1924;48.078;11.516;2023-04-03T12:53:00;24.10;;;0.80;;
3817;SDS011;1924;48.078;11.516;2023-04-03T12:55:30;24.10;;;0.80;;
3817;SDS011;1924;48.078;11.516;2023-04-03T12:57:57;24.20;;;0.70;;
3817;SDS011;1924;48.078;11.516;2023-04-03T13:00:38;24.00;;;0.80;;
3817;SDS011;1924;48.078;11.516;2023-04-03T13:03:06;24.30;;;0.80;;
3817;SDS011;1924;48.078;11.516;2023-04-03T13:05:48;24.40;;;0.80;;
3817;SDS011;1924;48.078;11.516;2023-04-03T13:08:21;24.40;;;0.80;;
3817;SDS011;1924;48.078;11.516;2023-04-03T13:10:53;24.67;;;0.80;;
3817;SDS011;1924;48.078;11.516;2023-04-03T13:13:23;24.70;;;0.80;;
3817;SDS011;1924;48.078;11.516;2023-04-03T13:15:51;24.70;;;0.77;;
3817;SDS011;1924;48.078;11.516;2023-04-03T13:18:24;24.80;;;0.80;;
3817;SDS011;1924;48.078;11.516;2023-04-03T13:20:57;24.50;;;0.80;;
3817;SDS011;1924;48.078;11.516;2023-04-03T13:23:27;24.60;;;0.80;;
3817;SDS011;1924;48.078;11.516;2023-04-03T13:25:56;24.50;;;0.70;;
3817;SDS011;1924;48.078;11.516;2023-04-03T13:28:27;24.77;;;0.80;;
3817;SDS011;1924;48.078;11.516;2023-04-03T13:30:56;24.70;;;0.80;;
3817;SDS011;1924;48.078;11.516;2023-04-03T13:33:29;24.70;;;0.80;;
3817;SDS011;1924;48.078;11.516;2023-04-03T13:36:00;24.60;;;0.80;;
3817;SDS011;1924;48.078;11.516;2023-04-03T13:38:30;24.60;;;0.77;;
3817;SDS011;1924;48.078;11.516;2023-04-03T13:40:59;24.70;;;0.80;;
3817;SDS011;1924;48.078;11.516;2023-04-03T13:43:29;24.90;;;0.80;;
3817;SDS011;1924;48.078;11.516;2023-04-03T13:45:59;24.90;;;0.80;;
3817;SDS011;1924;48.078;11.516;2023-04-03T13:48:36;25.10;;;0.80;;
3817;SDS011;1924;48.078;11.516;2023-04-03T13:51:05;25.10;;;0.80;;
3817;SDS011;1924;48.078;11.516;2023-04-03T13:53:44;25.60;;;0.80;;
3817;SDS011;1924;48.078;11.516;2023-04-03T13:56:16;26.00;;;0.80;;
3817;SDS011;1924;48.078;11.516;2023-04-03T13:58:53;25.90;;;0.80;;
3817;SDS011;1924;48.078;11.516;2023-04-03T14:01:22;26.10;;;0.80;;
3817;SDS011;1924;48.078;11.516;2023-04-03T14:03:53;25.90;;;0.80;;
3817;SDS011;1924;48.078;11.516;2023-04-03T14:06:22;25.77;;;0.80;;
3817;SDS011;1924;48.078;11.516;2023-04-03T14:08:49;25.97;;;0.80;;
3817;SDS011;1924;48.078;11.516;2023-04-03T14:11:17;25.70;;;0.80;;
3817;SDS011;1924;48.078;11.516;2023-04-03T14:13:47;25.80;;;0.80;;
3817;SDS011;1924;48.078;11.516;2023-04-03T14:16:15;25.70;;;0.80;;
3817;SDS011;1924;48.078;11.516;2023-04-03T14:18:44;25.60;;;0.80;;
3817;SDS011;1924;48.078;11.516;2023-04-03T14:21:13;25.40;;;0.80;;
3817;SDS011;1924;48.078;11.516;2023-04-03T14:23:41;25.87;;;0.90;;
3817;SDS011;1924;48.078;11.516;2023-04-03T14:26:09;25.40;;;0.80;;
3817;SDS011;1924;48.078;11.516;2023-04-03T14:28:38;25.50;;;0.80;;
3817;SDS011;1924;48.078;11.516;2023-04-03T14:31:05;25.40;;;0.80;;
3817;SDS011;1924;48.078;11.516;2023-04-03T14:33:32;25.50;;;0.80;;
3817;SDS011;1924;48.078;11.516;2023-04-03T14:36:00;25.50;;;0.80;;
3817;SDS011;1924;48.078;11.516;2023-04-03T14:38:30;25.60;;;0.80;;
3817;SDS011;1924;48.078;11.516;2023-04-03T14:40:57;25.40;;;0.80;;
3817;SDS011;1924;48.078;11.516;2023-04-03T14:43:24;25.60;;;0.80;;
3817;SDS011;1924;48.078;11.516;2023-04-03T14:45:51;25.50;;;0.80;;
3817;SDS011;1924;48.078;11.516;2023-04-03T14:48:19;25.60;;;0.80;;
3817;SDS011;1924;48.078;11.516;2023-04-03T14:50:47;25.50;;;0.80;;
3817;SDS011;1924;48.078;11.516;2023-04-03T14:53:15;25.87;;;0.80;;
3817;SDS011;1924;48.078;11.516;2023-04-03T14:55:44;25.90;;;0.80;;
3817;SDS011;1924;48.078;11.516;2023-04-03T14:58:12;25.80;;;0.80;;
3817;SDS011;1924;48.078;11.516;2023-04-03T15:00:41;25.80;;;0.80;;
3817;SDS011;1924;48.078;11.516;2023-04-03T15:03:11;25.97;;;0.80;;
3817;SDS011;1924;48.078;11.516;2023-04-03T15:05:40;25.70;;;0.80;;
3817;SDS011;1924;48.078;11.516;2023-04-03T15:08:08;25.53;;;0.80;;
3817;SDS011;1924;48.078;11.516;2023-04-03T15:10:45;25.60;;;0.80;;
3817;SDS011;1924;48.078;11.516;2023-04-03T15:13:12;25.50;;;0.80;;
3817;SDS011;1924;48.078;11.516;2023-04-03T15:15:39;25.40;;;0.80;;
3817;SDS011;1924;48.078;11.516;2023-04-03T15:18:09;25.40;;;0.80;;
3817;SDS011;1924;48.078;11.516;2023-04-03T15:20:40;25.57;;;0.80;;
3817;SDS011;1924;48.078;11.516;2023-04-03T15:23:08;25.50;;;0.80;;
3817;SDS011;1924;48.078;11.516;2023-04-03T15:25:36;25.40;;;0.80;;
3817;SDS011;1924;48.078;11.516;2023-04-03T15:28:04;25.30;;;0.80;;
3817;SDS011;1924;48.078;11.516;2023-04-03T15:30:32;25.30;;;0.80;;
3817;SDS011;1924;48.078;11.516;2023-04-03T15:33:01;25.20;;;0.80;;
3817;SDS011;1924;48.078;11.516;2023-04-03T15:35:27;25.20;;;0.80;;
3817;SDS011;1924;48.078;11.516;2023-04-03T15:37:54;25.10;;;0.80;;
3817;SDS011;1924;48.078;11.516;2023-04-03T15:40:21;24.90;;;0.80;;
3817;SDS011;1924;48.078;11.516;2023-04-03T15:42:47;25.00;;;0.80;;
3817;SDS011;1924;48.078;11.516;2023-04-03T15:45:16;25.00;;;0.80;;
3817;SDS011;1924;48.078;11.516;2023-04-03T15:47:42;24.90;;;0.80;;
3817;SDS011;1924;48.078;11.516;2023-04-03T15:50:09;25.00;;;0.80;;
3817;SDS011;1924;48.078;11.516;2023-04-03T15:52:36;24.90;;;0.80;;
3817;SDS011;1924;48.078;11.516;2023-04-03T15:55:03;24.90;;;0.80;;
3817;SDS011;1924;48.078;11.516;2023-04-03T15:57:31;25.00;;;0.80;;
3817;SDS011;1924;48.078;11.516;2023-04-03T15:59:57;24.80;;;0.80;;
3817;SDS011;1924;48.078;11.516;2023-04-03T16:02:25;24.90;;;0.80;;
3817;SDS011;1924;48.078;11.516;2023-04-03T16:04:53;24.80;;;0.80;;
3817;SDS011;1924;48.078;11.516;2023-04-03T16:07:20;24.60;;;0.80;;
3817;SDS011;1924;48.078;11.516;2023-04-03T16:09:46;24.90;;;0.80;;
3817;SDS011;1924;48.078;11.516;2023-04-03T16:12:13;24.90;;;0.80;;
3817;SDS011;1924;48.078;11.516;2023-04-03T16:14:40;24.87;;;0.70;;
3817;SDS011;1924;48.078;11.516;2023-04-03T16:17:07;24.73;;;0.73;;
3817;SDS011;1924;48.078;11.516;2023-04-03T16:19:35;24.70;;;0.80;;
3817;SDS011;1924;48.078;11.516;2023-04-03T16:22:01;24.60;;;0.80;;
3817;SDS011;1924;48.078;11.516;2023-04-03T16:24:28;24.67;;;0.80;;
3817;SDS011;1924;48.078;11.516;2023-04-03T16:26:55;24.70;;;0.70;;
3817;SDS011;1924;48.078;11.516;2023-04-03T16:29:22;24.80;;;0.80;;
3817;SDS011;1924;48.078;11.516;2023-04-03T16:31:49;24.77;;;0.80;;
3817;SDS011;1924;48.078;11.516;2023-04-03T16:34:16;24.77;;;0.80;;
3817;SDS011;1924;48.078;11.516;2023-04-03T16:36:44;24.80;;;0.80;;
3817;SDS011;1924;48.078;11.516;2023-04-03T16:39:11;24.77;;;0.80;;
3817;SDS011;1924;48.078;11.516;2023-04-03T16:41:38;24.73;;;0.80;;
3817;SDS011;1924;48.078;11.516;2023-04-03T16:44:05;24.67;;;0.80;;
3817;SDS011;1924;48.078;11.516;2023-04-03T16:46:32;24.50;;;0.80;;
3817;SDS011;1924;48.078;11.516;2023-04-03T16:48:59;24.70;;;0.80;;
3817;SDS011;1924;48.078;11.516;2023-04-03T16:51:26;24.70;;;0.80;;
3817;SDS011;1924;48.078;11.516;2023-04-03T16:53:54;24.67;;;0.80;;
3817;SDS011;1924;48.078;11.516;2023-04-03T16:56:21;24.67;;;0.80;;
3817;SDS011;1924;48.078;11.516;2023-04-03T16:58:48;24.40;;;0.80;;
3817;SDS011;1924;48.078;11.516;2023-04-03T17:01:15;24.60;;;0.80;;
3817;SDS011;1924;48.078;11.516;2023-04-03T17:03:43;24.57;;;0.80;;
3817;SDS011;1924;48.078;11.516;2023-04-03T17:06:10;24.40;;;0.70;;
3817;SDS011;1924;48.078;11.516;2023-04-03T17:08:41;24.70;;;0.80;;
3817;SDS011;1924;48.078;11.516;2023-04-03T17:11:09;24.60;;;0.73;;
3817;SDS011;1924;48.078;11.516;2023-04-03T17:13:35;24.60;;;0.80;;
3817;SDS011;1924;48.078;11.516;2023-04-03T17:16:02;24.40;;;0.70;;
3817;SDS011;1924;48.078;11.516;2023-04-03T17:18:31;24.60;;;0.70;;
3817;SDS011;1924;48.078;11.516;2023-04-03T17:21:00;24.40;;;0.80;;
3817;SDS011;1924;48.078;11.516;2023-04-03T17:23:27;24.60;;;0.80;;
3817;SDS011;1924;48.078;11.516;2023-04-03T17:25:54;24.50;;;0.80;;
3817;SDS011;1924;48.078;11.516;2023-04-03T17:28:23;24.40;;;0.80;;
3817;SDS011;1924;48.078;11.516;2023-04-03T17:30:52;24.60;;;0.80;;
3817;SDS011;1924;48.078;11.516;2023-04-03T17:33:19;24.60;;;0.80;;
3817;SDS011;1924;48.078;11.516;2023-04-03T17:35:46;24.60;;;0.80;;
3817;SDS011;1924;48.078;11.516;2023-04-03T17:38:13;24.50;;;0.80;;
3817;SDS011;1924;48.078;11.516;2023-04-03T17:40:39;24.57;;;0.80;;
3817;SDS011;1924;48.078;11.516;2023-04-03T17:43:06;24.40;;;0.80;;
3817;SDS011;1924;48.078;11.516;2023-04-03T17:45:34;24.40;;;0.80;;
3817;SDS011;1924;48.078;11.516;2023-04-03T17:48:01;24.60;;;0.80;;
3817;SDS011;1924;48.078;11.516;2023-04-03T17:50:28;24.67;;;0.80;;
3817;SDS011;1924;48.078;11.516;2023-04-03T17:52:55;24.50;;;0.80;;
3817;SDS011;1924;48.078;11.516;2023-04-03T17:55:21;24.60;;;0.80;;
3817;SDS011;1924;48.078;11.516;2023-04-03T17:57:48;24.77;;;0.80;;